< < Back
Terminal Aerodrome Forecast


Current Version              Previous Versions:   1  2  3  4  5  6  7  8  9  

Terminal Aerodrome Forecast

634
FTUS42 KILM 170200 AAA
TAFFLO
TAF AMD
KFLO 170250Z 1703/1724 VRB03KT P6SM VCSH SCT050 BKN100
      TEMPO 1706/1708 4SM SHRA SCT020 BKN050
     FM170800 03004KT 4SM BR SCT006 BKN015
     FM171300 06006KT P6SM SCT015 BKN035=

Latest METAR

491
SAUS70 KWBC 171300 RRG
MTRFLO
METAR KFLO 171253Z 04005KT 4SM BR OVC003 19/18 A2995 RMK AO2 SLP140
T01940183


USA.gov is the U.S. government's official web portal to all federal, state and local government web resources and services.